Time;durP1;ratioP1;P1;durP2;ratioP2;P2;SDS_P1;SDS_P2;PMS_P1;PMS_P2;Temp;Humidity;BMP_temperature;BMP_pressure;BME280_temperature;BME280_humidity;BME280_pressure;Samples;Min_cycle;Max_cycle;Signal;HPM_P1;HPM_P2
2022/05/22 00:02:22;;;;;;;0.00;0.00;;;;;;;15.86;60.78;100773.97;7364247;19;20006;-62
2022/05/22 00:04:48;;;;;;;0.00;0.00;;;;;;;15.91;60.26;100787.81;7363159;19;20545;-61
2022/05/22 00:07:13;;;;;;;0.03;0.03;;;;;;;15.88;61.09;100777.44;7366792;19;20429;-61
2022/05/22 00:09:39;;;;;;;0.00;0.00;;;;;;;15.88;61.23;100783.53;7361584;19;20011;-62
2022/05/22 00:12:07;;;;;;;0.10;0.10;;;;;;;15.87;61.49;100773.09;7368115;19;20062;-62
2022/05/22 00:14:32;;;;;;;0.00;0.00;;;;;;;15.83;61.42;100770.56;7367078;19;20026;-62
2022/05/22 00:16:59;;;;;;;0.00;0.00;;;;;;;15.75;61.35;100751.59;7367118;19;20022;-62
2022/05/22 00:19:31;;;;;;;0.00;0.00;;;;;;;15.85;60.46;100767.00;7367541;19;20026;-62
2022/05/22 00:21:57;;;;;;;0.00;0.00;;;;;;;15.81;61.49;100767.16;7368530;19;20036;-62
2022/05/22 00:24:26;;;;;;;0.10;0.10;;;;;;;15.81;60.32;100761.91;7368611;19;20429;-62
2022/05/22 00:26:52;;;;;;;0.00;0.00;;;;;;;15.68;61.45;100739.63;7365782;19;20023;-61
2022/05/22 00:29:18;;;;;;;0.10;0.10;;;;;;;15.76;61.53;100748.06;7368066;19;20680;-61
2022/05/22 00:31:44;;;;;;;0.05;0.05;;;;;;;15.68;61.57;100738.78;7367003;19;20022;-61
2022/05/22 00:34:11;;;;;;;0.10;0.10;;;;;;;15.73;61.94;100756.09;7366588;19;20028;-61
2022/05/22 00:36:37;;;;;;;0.00;0.00;;;;;;;15.73;61.62;100753.47;7364871;19;20014;-61
2022/05/22 00:39:02;;;;;;;0.00;0.00;;;;;;;15.72;61.57;100735.97;7368397;19;20023;-61
2022/05/22 00:41:29;;;;;;;0.10;0.10;;;;;;;15.72;61.36;100738.59;7366127;19;20074;-62
2022/05/22 00:43:56;;;;;;;0.00;0.00;;;;;;;15.70;62.07;100745.69;7367863;19;20034;-61
2022/05/22 00:46:23;;;;;;;0.10;0.10;;;;;;;15.65;61.88;100737.13;7368112;19;20014;-61
2022/05/22 00:48:53;;;;;;;0.10;0.10;;;;;;;15.70;62.30;100740.41;7366738;19;20031;-62
2022/05/22 00:51:33;;;;;;;0.00;0.00;;;;;;;15.71;61.53;100750.06;7366921;19;20014;-62
2022/05/22 00:54:10;;;;;;;0.00;0.00;;;;;;;15.72;62.84;100740.38;7366053;19;20010;-62
2022/05/22 00:56:46;;;;;;;0.00;0.00;;;;;;;15.65;62.56;100723.97;7367461;19;20011;-61
2022/05/22 00:59:16;;;;;;;0.10;0.10;;;;;;;15.73;62.52;100729.78;7366512;19;20007;-62
2022/05/22 01:01:42;;;;;;;0.10;0.10;;;;;;;15.78;62.92;100734.84;7367725;19;20010;-61
2022/05/22 01:04:15;;;;;;;0.10;0.10;;;;;;;15.74;63.02;100704.28;7365076;19;20006;-61
2022/05/22 01:06:41;;;;;;;0.00;0.00;;;;;;;15.83;63.24;100714.44;7366985;19;20043;-61
2022/05/22 01:09:06;;;;;;;0.10;0.10;;;;;;;15.83;63.40;100702.09;7366390;19;20015;-61
2022/05/22 01:11:36;;;;;;;0.10;0.10;;;;;;;15.90;63.24;100712.38;7365653;19;20035;-61
2022/05/22 01:14:08;;;;;;;0.10;0.10;;;;;;;15.91;62.89;100703.53;7366363;19;20015;-61
2022/05/22 01:16:34;;;;;;;0.00;0.00;;;;;;;15.80;63.33;100681.16;7365560;19;20018;-61
2022/05/22 01:19:00;;;;;;;0.00;0.00;;;;;;;15.88;62.75;100687.88;7365100;19;20531;-62
2022/05/22 01:21:29;;;;;;;0.00;0.00;;;;;;;15.93;62.79;100699.06;7365373;19;20035;-61
2022/05/22 01:23:55;;;;;;;0.00;0.00;;;;;;;15.91;62.55;100688.59;7362818;19;20355;-61
2022/05/22 01:26:23;;;;;;;0.10;0.10;;;;;;;15.92;63.10;100705.28;7368645;19;20042;-61
2022/05/22 01:28:48;;;;;;;;;;;;;;;15.94;61.25;100692.88;7365153;19;20895;-61
2022/05/22 01:31:14;;;;;;;0.00;0.00;;;;;;;15.87;63.17;100680.91;7358186;19;19922;-62
2022/05/22 01:33:41;;;;;;;0.00;0.00;;;;;;;15.87;63.37;100683.56;7367937;19;20106;-61
2022/05/22 01:36:07;;;;;;;0.10;0.10;;;;;;;15.76;63.93;100666.47;7365447;19;21723;-61
2022/05/22 01:38:33;;;;;;;0.00;0.00;;;;;;;15.81;63.50;100671.47;7366576;19;20689;-62
2022/05/22 01:40:59;;;;;;;0.00;0.00;;;;;;;15.84;62.68;100679.25;7366317;19;20011;-61
2022/05/22 01:43:24;;;;;;;0.00;0.00;;;;;;;15.80;64.08;100669.78;7364928;19;20077;-62
2022/05/22 01:45:50;;;;;;;0.00;0.00;;;;;;;15.78;63.93;100661.97;7366035;19;20362;-61
2022/05/22 01:48:16;;;;;;;0.10;0.10;;;;;;;15.78;63.94;100661.97;7367039;19;20014;-61
2022/05/22 01:50:44;;;;;;;0.10;0.10;;;;;;;15.67;63.92;100645.81;7362802;19;20486;-62
2022/05/22 01:53:09;;;;;;;0.00;0.00;;;;;;;15.74;64.58;100665.66;7367371;19;20041;-61
2022/05/22 01:55:35;;;;;;;0.00;0.00;;;;;;;15.76;64.40;100663.81;7365243;19;20006;-61
2022/05/22 01:58:01;;;;;;;0.00;0.00;;;;;;;15.76;64.65;100662.94;7360545;19;20043;-61
2022/05/22 02:00:27;;;;;;;0.00;0.00;;;;;;;15.77;63.90;100665.53;7354307;19;20025;-62
2022/05/22 02:02:57;;;;;;;0.00;0.00;;;;;;;15.80;64.01;100657.47;7363367;19;20014;-61
2022/05/22 02:05:22;;;;;;;0.10;0.10;;;;;;;15.82;64.23;100658.28;7364210;19;20014;-61
2022/05/22 02:10:34;;;;;;;0.00;0.00;;;;;;;15.88;64.81;100651.03;7362425;19;20386;-61
2022/05/22 02:12:59;;;;;;;0.07;0.07;;;;;;;15.91;64.45;100650.88;7358209;19;20044;-61
2022/05/22 02:15:25;;;;;;;0.10;0.10;;;;;;;15.93;65.10;100638.50;7358624;19;20003;-62
2022/05/22 02:17:51;;;;;;;0.05;0.05;;;;;;;15.96;64.70;100643.59;7361687;19;20048;-61
2022/05/22 02:20:17;;;;;;;0.08;0.08;;;;;;;15.97;64.94;100630.38;7361402;19;20373;-61
2022/05/22 02:22:49;;;;;;;0.10;0.10;;;;;;;16.03;64.04;100631.88;7363405;19;20035;-62
2022/05/22 02:25:17;;;;;;;0.08;0.08;;;;;;;16.05;64.17;100637.91;7361588;19;20047;-61
2022/05/22 02:27:43;;;;;;;0.10;0.10;;;;;;;16.08;64.00;100632.53;7364322;19;20035;-62
2022/05/22 02:30:12;;;;;;;0.10;0.10;;;;;;;16.09;64.44;100642.13;7359177;19;20719;-61
2022/05/22 02:32:37;;;;;;;0.03;0.03;;;;;;;16.06;64.50;100639.63;7362523;19;20029;-62
2022/05/22 02:35:05;;;;;;;0.00;0.00;;;;;;;16.12;64.36;100628.81;7362030;19;20010;-61
2022/05/22 02:37:30;;;;;;;0.00;0.00;;;;;;;16.12;64.54;100623.56;7356934;19;20094;-62
2022/05/22 02:39:59;;;;;;;0.00;0.00;;;;;;;16.16;64.35;100619.81;7361934;19;20941;-61
2022/05/22 02:42:24;;;;;;;0.10;0.10;;;;;;;16.16;64.49;100629.50;7359194;19;20014;-62
2022/05/22 02:44:49;;;;;;;0.10;0.10;;;;;;;16.10;64.53;100614.84;7362675;19;20028;-61
2022/05/22 02:47:15;;;;;;;0.00;0.00;;;;;;;16.21;64.74;100625.72;7362139;19;20014;-62
2022/05/22 02:49:40;;;;;;;0.10;0.10;;;;;;;16.23;64.36;100620.41;7360782;19;20387;-61
2022/05/22 02:52:06;;;;;;;0.00;0.00;;;;;;;16.23;64.51;100616.00;7359786;19;20013;-62
2022/05/22 02:54:31;;;;;;;0.00;0.00;;;;;;;16.23;64.35;100616.00;7361656;19;20437;-61
2022/05/22 02:56:56;;;;;;;0.00;0.00;;;;;;;16.27;64.29;100620.19;7361510;19;20074;-62
2022/05/22 02:59:22;;;;;;;0.10;0.10;;;;;;;16.30;64.22;100627.94;7360338;19;20010;-61
2022/05/22 03:01:47;;;;;;;0.00;0.00;;;;;;;16.27;64.52;100607.03;7360405;19;20365;-62
2022/05/22 03:04:13;;;;;;;0.10;0.10;;;;;;;16.24;64.63;100595.75;7351650;19;20415;-62
2022/05/22 03:06:38;;;;;;;0.00;0.00;;;;;;;16.24;63.99;100593.97;7353384;19;20039;-62
2022/05/22 03:09:05;;;;;;;0.10;0.10;;;;;;;16.38;64.00;100616.19;7359586;19;20022;-61
2022/05/22 03:11:31;;;;;;;0.05;0.05;;;;;;;16.39;63.87;100615.25;7359949;19;20015;-61
2022/05/22 03:13:56;;;;;;;0.00;0.00;;;;;;;16.40;64.04;100611.69;7362192;19;20006;-62
2022/05/22 03:16:21;;;;;;;0.05;0.05;;;;;;;16.41;64.21;100608.13;7359161;19;21255;-61
2022/05/22 03:18:47;;;;;;;0.08;0.08;;;;;;;16.40;64.15;100606.41;7355125;19;20014;-61
2022/05/22 03:21:13;;;;;;;0.10;0.10;;;;;;;16.25;63.99;100579.88;7358624;19;20018;-61
2022/05/22 03:23:39;;;;;;;0.00;0.00;;;;;;;16.40;63.95;100595.88;7361331;19;20014;-61
2022/05/22 03:26:04;;;;;;;0.10;0.10;;;;;;;16.37;64.52;100596.00;7362446;19;20022;-62
2022/05/22 03:28:30;;;;;;;0.00;0.00;;;;;;;16.40;64.21;100585.34;7361646;19;20010;-62
2022/05/22 03:30:55;;;;;;;0.00;0.00;;;;;;;16.40;64.54;100573.00;7362048;19;20006;-62
2022/05/22 03:33:21;;;;;;;0.00;0.00;;;;;;;16.41;64.17;100579.97;7360406;19;20381;-62
2022/05/22 03:35:46;;;;;;;0.10;0.10;;;;;;;16.42;64.06;100570.28;7363619;19;20014;-61
2022/05/22 03:38:11;;;;;;;0.10;0.10;;;;;;;16.42;64.32;100562.38;7361988;19;20014;-62
2022/05/22 03:40:47;;;;;;;0.00;0.00;;;;;;;16.39;62.73;100547.59;7361212;19;20018;-61
2022/05/22 03:43:16;;;;;;;0.00;0.00;;;;;;;16.45;64.03;100551.69;7361191;19;20006;-61
2022/05/22 03:45:42;;;;;;;0.10;0.10;;;;;;;16.35;63.80;100531.06;7364006;19;20680;-62
2022/05/22 03:48:08;;;;;;;0.00;0.00;;;;;;;16.43;63.94;100545.66;7361178;19;20645;-61
2022/05/22 03:50:34;;;;;;;0.00;0.00;;;;;;;16.42;64.02;100530.75;7362115;19;20082;-62
2022/05/22 03:52:59;;;;;;;0.00;0.00;;;;;;;16.42;63.82;100520.22;7360733;19;20003;-62
2022/05/22 03:55:25;;;;;;;0.00;0.00;;;;;;;16.40;64.07;100516.81;7361695;19;20010;-62
2022/05/22 03:57:51;;;;;;;0.00;0.00;;;;;;;16.40;64.09;100527.34;7361199;19;20693;-62
2022/05/22 04:00:19;;;;;;;0.00;0.00;;;;;;;16.39;64.01;100525.66;7361339;19;20015;-62
2022/05/22 04:02:45;;;;;;;0.05;0.05;;;;;;;16.33;63.98;100522.41;7363654;19;20015;-62
2022/05/22 04:05:11;;;;;;;0.10;0.10;;;;;;;16.30;63.90;100530.44;7365363;19;20022;-62
2022/05/22 04:07:38;;;;;;;0.00;0.00;;;;;;;16.30;63.99;100527.81;7367204;19;20014;-62
2022/05/22 04:10:08;;;;;;;0.00;0.00;;;;;;;16.28;64.14;100534.94;7365910;19;20018;-62
2022/05/22 04:12:34;;;;;;;0.00;0.00;;;;;;;16.24;63.91;100527.25;7366652;19;20426;-61
2022/05/22 04:14:59;;;;;;;0.00;0.00;;;;;;;16.21;63.93;100532.66;7367624;19;20011;-61
2022/05/22 04:17:25;;;;;;;0.10;0.10;;;;;;;16.18;64.42;100525.78;7367637;19;20018;-62
2022/05/22 04:19:50;;;;;;;0.00;0.00;;;;;;;16.17;64.28;100525.84;7367825;19;20014;-61
2022/05/22 04:22:16;;;;;;;0.10;0.10;;;;;;;16.16;64.22;100524.97;7367086;19;20012;-62
2022/05/22 04:27:25;;;;;;;0.00;0.00;;;;;;;16.14;64.48;100521.59;7366990;19;20360;-62
2022/05/22 04:29:51;;;;;;;0.08;0.08;;;;;;;16.14;64.25;100516.31;7368625;19;20011;-62
2022/05/22 04:32:16;;;;;;;0.00;0.00;;;;;;;16.14;64.85;100521.59;7365070;19;20077;-62
2022/05/22 04:34:41;;;;;;;0.00;0.00;;;;;;;16.14;64.71;100513.69;7368847;19;20669;-62
2022/05/22 04:37:07;;;;;;;0.00;0.00;;;;;;;16.04;64.60;100499.25;7362932;19;20017;-62
2022/05/22 04:39:32;;;;;;;0.00;0.00;;;;;;;16.11;64.40;100511.19;7368172;19;20399;-62
2022/05/22 04:41:58;;;;;;;0.10;0.10;;;;;;;16.17;64.51;100528.47;7366386;19;20011;-62
2022/05/22 04:44:23;;;;;;;0.10;0.10;;;;;;;16.12;64.33;100515.56;7366039;19;20470;-63
2022/05/22 04:46:48;;;;;;;0.10;0.10;;;;;;;16.20;64.15;100521.28;7367658;19;20056;-62
2022/05/22 04:49:14;;;;;;;0.10;0.10;;;;;;;16.21;64.06;100516.84;7365593;19;20025;-62
2022/05/22 04:51:39;;;;;;;0.05;0.05;;;;;;;16.24;64.82;100517.56;7367934;19;20052;-61
2022/05/22 04:54:05;;;;;;;0.10;0.10;;;;;;;16.27;63.80;100516.56;7366330;19;20010;-62
2022/05/22 04:56:30;;;;;;;0.08;0.08;;;;;;;16.27;64.53;100506.00;7367012;19;20494;-62
2022/05/22 04:58:56;;;;;;;0.10;0.10;;;;;;;16.28;64.47;100502.47;7367231;19;20027;-62
2022/05/22 05:01:21;;;;;;;0.10;0.10;;;;;;;16.31;64.52;100505.78;7363088;19;20078;-62
2022/05/22 05:03:47;;;;;;;0.10;0.10;;;;;;;16.35;64.41;100509.97;7365461;19;20018;-62
2022/05/22 05:06:12;;;;;;;0.10;0.10;;;;;;;16.37;65.31;100507.25;7364743;19;20074;-62
2022/05/22 05:08:38;;;;;;;0.10;0.10;;;;;;;16.34;65.30;100489.00;7368019;19;20051;-61
2022/05/22 05:11:04;;;;;;;0.10;0.10;;;;;;;16.25;64.90;100474.47;7362893;19;20742;-62
2022/05/22 05:13:29;;;;;;;0.08;0.08;;;;;;;16.36;64.76;100495.03;7366987;19;20011;-62
2022/05/22 05:16:09;;;;;;;0.00;0.00;;;;;;;16.43;64.27;100495.59;7364701;19;20398;-62
2022/05/22 05:18:36;;;;;;;0.10;0.10;;;;;;;16.40;65.11;100501.84;7365760;19;20006;-62
2022/05/22 05:21:04;;;;;;;0.00;0.00;;;;;;;16.43;65.46;100506.13;7364687;19;20063;-62
2022/05/22 05:23:29;;;;;;;0.00;0.00;;;;;;;16.42;64.98;100494.72;7367411;19;20706;-62
2022/05/22 05:25:55;;;;;;;0.03;0.03;;;;;;;16.43;65.11;100500.88;7364844;19;20015;-62
2022/05/22 05:28:21;;;;;;;0.00;0.00;;;;;;;16.43;64.90;100501.72;7365543;19;20077;-62
2022/05/22 05:30:46;;;;;;;0.10;0.10;;;;;;;16.45;64.83;100491.94;7364731;19;20031;-62
2022/05/22 05:33:11;;;;;;;0.08;0.08;;;;;;;16.46;65.41;100490.16;7364989;19;20014;-62
2022/05/22 05:35:37;;;;;;;0.00;0.00;;;;;;;16.46;65.13;100487.50;7365567;19;20007;-62
2022/05/22 05:38:03;;;;;;;0.10;0.10;;;;;;;16.47;65.22;100486.56;7362605;19;20017;-62
2022/05/22 05:40:28;;;;;;;0.00;0.00;;;;;;;16.49;64.96;100484.72;7366534;19;20694;-62
2022/05/22 05:42:54;;;;;;;0.10;0.10;;;;;;;16.50;64.71;100481.16;7365286;19;20007;-62
2022/05/22 05:45:20;;;;;;;0.00;0.00;;;;;;;16.44;65.02;100460.38;7367502;19;20017;-61
2022/05/22 05:47:47;;;;;;;0.00;0.00;;;;;;;16.52;65.18;100474.00;7364391;19;20002;-62
2022/05/22 05:50:15;;;;;;;0.00;0.00;;;;;;;16.52;65.18;100468.75;7364904;19;20039;-62
2022/05/22 05:52:41;;;;;;;0.10;0.10;;;;;;;16.59;64.74;100480.69;7365489;19;20015;-62
2022/05/22 05:55:07;;;;;;;0.10;0.10;;;;;;;16.54;65.17;100456.34;7366153;19;20015;-62
2022/05/22 05:57:33;;;;;;;0.00;0.00;;;;;;;16.65;64.85;100475.09;7363924;19;20025;-62
2022/05/22 05:59:58;;;;;;;0.10;0.10;;;;;;;16.69;65.14;100484.56;7362189;19;20014;-62
2022/05/22 06:02:24;;;;;;;0.00;0.00;;;;;;;16.73;64.81;100483.50;7364581;19;20038;-62
2022/05/22 06:04:49;;;;;;;0.00;0.00;;;;;;;16.76;64.64;100488.59;7365113;19;20015;-62
2022/05/22 06:07:15;;;;;;;0.00;0.00;;;;;;;16.80;64.99;100479.63;7362002;19;20044;-62
2022/05/22 06:09:40;;;;;;;0.00;0.00;;;;;;;16.83;65.09;100471.56;7362697;19;20874;-62
2022/05/22 06:12:06;;;;;;;0.00;0.00;;;;;;;16.84;65.12;100477.69;7365425;19;20015;-62
2022/05/22 06:14:32;;;;;;;0.10;0.10;;;;;;;16.88;64.36;100481.88;7360649;19;20031;-62
2022/05/22 06:16:57;;;;;;;0.10;0.10;;;;;;;16.90;64.85;100468.59;7365383;19;20009;-62
2022/05/22 06:22:08;;;;;;;0.00;0.00;;;;;;;16.97;64.14;100472.59;7363645;19;20014;-62
2022/05/22 06:24:35;;;;;;;0.10;0.10;;;;;;;16.99;64.38;100462.84;7362301;19;20369;-62
2022/05/22 06:27:01;;;;;;;0.00;0.00;;;;;;;17.03;64.31;100465.22;7364388;19;20007;-62
2022/05/22 06:29:26;;;;;;;0.10;0.10;;;;;;;17.02;64.10;100450.31;7363608;19;21864;-62
2022/05/22 06:31:51;;;;;;;0.10;0.10;;;;;;;17.05;64.27;100452.81;7365069;19;20358;-62
2022/05/22 06:34:17;;;;;;;0.10;0.10;;;;;;;17.09;64.40;100442.94;7364540;19;20032;-62
2022/05/22 06:36:42;;;;;;;0.10;0.10;;;;;;;17.12;64.19;100448.03;7362120;19;20035;-62
2022/05/22 06:41:52;;;;;;;0.10;0.10;;;;;;;17.18;63.86;100471.44;7365055;19;20017;-62
2022/05/22 06:44:17;;;;;;;0.03;0.03;;;;;;;17.20;64.20;100466.97;7365206;19;21699;-62
2022/05/22 06:46:42;;;;;;;0.03;0.03;;;;;;;17.22;64.01;100467.72;7362922;19;20035;-62
2022/05/22 06:49:08;;;;;;;0.00;0.00;;;;;;;17.22;64.31;100459.78;7365012;19;20017;-62
2022/05/22 06:51:33;;;;;;;0.10;0.10;;;;;;;17.24;64.15;100468.50;7363521;19;20074;-62
2022/05/22 06:53:58;;;;;;;0.00;0.00;;;;;;;17.26;63.50;100476.31;7361568;19;20595;-62
2022/05/22 06:56:24;;;;;;;0.10;0.10;;;;;;;17.24;62.73;100481.69;7361387;19;20010;-62
2022/05/22 06:58:49;;;;;;;0.10;0.10;;;;;;;17.24;62.42;100479.06;7360496;19;20013;-62
2022/05/22 07:01:16;;;;;;;0.10;0.10;;;;;;;17.24;61.98;100472.94;7361935;19;20006;-62
2022/05/22 07:03:42;;;;;;;0.10;0.10;;;;;;;17.21;61.73;100473.09;7360177;19;20010;-62
2022/05/22 07:06:07;;;;;;;0.10;0.10;;;;;;;17.16;62.30;100470.69;7359801;19;20026;-62
2022/05/22 07:08:33;;;;;;;0.00;0.00;;;;;;;17.11;62.21;100470.09;7363176;19;20235;-62
2022/05/22 07:13:42;;;;;;;0.10;0.10;;;;;;;17.02;62.44;100473.22;7361613;19;20018;-61
2022/05/22 07:16:08;;;;;;;0.10;0.10;;;;;;;16.92;62.06;100456.16;7360969;19;20006;-61
2022/05/22 07:18:33;;;;;;;0.00;0.00;;;;;;;16.96;62.78;100457.72;7358542;19;20034;-62
2022/05/22 07:20:59;;;;;;;0.00;0.00;;;;;;;16.95;62.45;100471.84;7360989;19;20018;-62
2022/05/22 07:23:24;;;;;;;0.00;0.00;;;;;;;16.94;62.66;100456.94;7357738;19;20566;-62
2022/05/22 07:25:52;;;;;;;0.00;0.00;;;;;;;16.93;62.69;100465.78;7358029;19;20010;-62
2022/05/22 07:28:18;;;;;;;0.00;0.00;;;;;;;16.92;62.69;100469.34;7355434;19;20025;-62
2022/05/22 07:30:44;;;;;;;0.10;0.10;;;;;;;16.91;62.68;100470.28;7357914;19;20010;-62
2022/05/22 07:33:09;;;;;;;0.00;0.00;;;;;;;16.91;62.99;100465.88;7360012;19;20757;-62
2022/05/22 07:35:35;;;;;;;0.00;0.00;;;;;;;16.90;67.54;100458.03;7360436;19;20086;-66
2022/05/22 07:38:01;;;;;;;0.05;0.05;;;;;;;16.81;68.98;100449.66;7365417;19;20070;-66
2022/05/22 07:40:28;;;;;;;0.10;0.10;;;;;;;16.74;68.06;100460.63;7369866;19;20372;-65
2022/05/22 07:42:53;;;;;;;0.10;0.10;;;;;;;16.62;67.36;100448.88;7368163;19;20013;-64
2022/05/22 07:45:18;;;;;;;0.10;0.10;;;;;;;16.51;66.65;100453.88;7367994;19;20014;-65
2022/05/22 07:47:44;;;;;;;0.00;0.00;;;;;;;16.38;67.59;100444.91;7365766;19;20006;-64
2022/05/22 07:50:18;;;;;;;0.00;0.00;;;;;;;16.11;68.18;100416.34;7366556;19;20029;-64
2022/05/22 07:52:45;;;;;;;0.00;0.00;;;;;;;16.07;69.28;100417.47;7369835;19;20098;-64
2022/05/22 07:55:15;;;;;;;0.00;0.00;;;;;;;16.06;68.34;100428.91;7366018;19;20464;-64
2022/05/22 07:57:45;;;;;;;0.00;0.00;;;;;;;16.00;69.08;100418.66;7364411;19;21893;-64
2022/05/22 08:00:13;;;;;;;0.00;0.00;;;;;;;15.95;69.16;100418.91;7356846;19;20018;-64
2022/05/22 08:02:39;;;;;;;0.00;0.00;;;;;;;15.90;67.25;100422.69;7358696;19;20065;-64
2022/05/22 08:05:06;;;;;;;0.08;0.08;;;;;;;15.86;69.43;100415.88;7365577;19;20557;-64
2022/05/22 08:07:32;;;;;;;0.10;0.10;;;;;;;15.80;68.87;100432.81;7365234;19;20107;-64
2022/05/22 08:09:58;;;;;;;0.00;0.00;;;;;;;15.78;67.93;100432.06;7367106;19;20074;-63
2022/05/22 08:12:24;;;;;;;0.10;0.10;;;;;;;15.73;68.58;100427.00;7363177;19;20417;-63
2022/05/22 08:14:50;;;;;;;0.00;0.00;;;;;;;15.59;68.32;100413.63;7364889;19;20039;-63
2022/05/22 08:17:19;;;;;;;0.00;0.00;;;;;;;15.67;68.23;100432.56;7356221;19;20011;-63
2022/05/22 08:19:45;;;;;;;0.03;0.03;;;;;;;15.62;70.49;100426.63;7360655;19;20019;-63
2022/05/22 08:22:11;;;;;;;0.00;0.00;;;;;;;15.61;69.64;100414.38;7360062;19;20007;-63
2022/05/22 08:24:36;;;;;;;0.00;0.00;;;;;;;15.60;68.13;100399.53;7364772;19;20007;-63
2022/05/22 08:27:02;;;;;;;0.10;0.10;;;;;;;15.58;68.11;100412.75;7356329;19;20014;-63
2022/05/22 08:29:27;;;;;;;0.05;0.05;;;;;;;15.57;68.43;100397.06;7352852;19;20118;-63
2022/05/22 08:31:52;;;;;;;0.00;0.00;;;;;;;15.54;68.63;100390.16;7361073;19;20074;-63
2022/05/22 08:34:18;;;;;;;0.00;0.00;;;;;;;15.54;68.79;100379.63;7357598;19;20354;-63
2022/05/22 08:36:45;;;;;;;0.00;0.00;;;;;;;15.55;69.01;100385.72;7357736;19;20018;-63
2022/05/22 08:39:10;;;;;;;0.00;0.00;;;;;;;15.56;68.24;100382.16;7356901;19;20042;-63
2022/05/22 08:41:47;;;;;;;0.10;0.10;;;;;;;15.66;69.52;100369.44;7359065;19;20677;-63
2022/05/22 08:44:24;;;;;;;0.00;0.00;;;;;;;15.72;70.12;100371.81;7357933;19;20010;-63
2022/05/22 08:47:03;;;;;;;0.00;0.00;;;;;;;15.85;68.99;100366.78;7364055;19;20102;-63
2022/05/22 08:49:41;;;;;;;0.10;0.10;;;;;;;15.97;69.77;100366.16;7353268;19;20010;-63
2022/05/22 08:52:17;;;;;;;0.00;0.00;;;;;;;16.09;69.55;100374.28;7366733;19;20082;-63
2022/05/22 08:54:47;;;;;;;0.00;0.00;;;;;;;16.17;69.74;100368.66;7365869;19;20034;-63
2022/05/22 09:00:11;;;;;;;0.00;0.00;;;;;;;16.35;69.69;100367.69;7261536;19;2004600;-63
2022/05/22 09:02:45;;;;;;;0.10;0.10;;;;;;;16.35;68.54;100357.13;7366126;19;20002;-63
2022/05/22 09:05:18;;;;;;;0.10;0.10;;;;;;;16.52;70.13;100372.06;7364756;19;20014;-63
2022/05/22 09:08:02;;;;;;;0.00;0.00;;;;;;;16.61;68.18;100368.94;7359031;19;20059;-62
2022/05/22 09:10:37;;;;;;;0.10;0.10;;;;;;;16.70;67.22;100370.25;7358650;19;20022;-62
2022/05/22 09:13:18;;;;;;;0.08;0.08;;;;;;;16.73;68.35;100359.59;7363468;19;20077;-63
2022/05/22 09:15:48;;;;;;;0.10;0.10;;;;;;;16.78;69.32;100365.47;7364125;19;20046;-62
2022/05/22 09:18:36;;;;;;;0.03;0.03;;;;;;;16.84;68.51;100365.13;7363408;19;20010;-62
2022/05/22 09:21:26;;;;;;;0.00;0.00;;;;;;;16.89;66.21;100356.13;7362274;19;20776;-62
2022/05/22 09:23:56;;;;;;;0.00;0.00;;;;;;;16.87;67.78;100353.53;7363444;19;20009;-62
2022/05/22 09:26:43;;;;;;;0.00;0.00;;;;;;;16.89;66.41;100356.13;7360754;19;21176;-63
2022/05/22 09:29:45;;;;;;;0.00;0.00;;;;;;;16.89;65.93;100342.94;7357586;19;20030;-63
2022/05/22 09:32:29;;;;;;;0.10;0.10;;;;;;;16.84;66.40;100336.13;7259400;19;2004516;-62
2022/05/22 09:35:29;;;;;;;0.00;0.00;;;;;;;16.86;66.09;100333.38;7362652;19;20921;-62
2022/05/22 09:38:20;;;;;;;0.10;0.10;;;;;;;16.87;65.96;100327.16;7260811;19;2004336;-63
2022/05/22 09:40:49;;;;;;;0.03;0.03;;;;;;;16.97;65.32;100319.59;7360905;19;20006;-62
2022/05/22 09:43:27;;;;;;;0.00;0.00;;;;;;;17.05;64.92;100323.53;7363281;19;20428;-62
2022/05/22 09:46:22;;;;;;;0.00;0.00;;;;;;;17.12;64.62;100326.66;7363479;19;20595;-62
2022/05/22 09:49:25;;;;;;;0.10;0.10;;;;;;;17.16;64.47;100333.47;7263394;19;2004640;-62
2022/05/22 09:52:17;;;;;;;0.10;0.10;;;;;;;17.21;64.55;100330.59;7261560;19;2005083;-62
2022/05/22 09:54:45;;;;;;;0.10;0.10;;;;;;;17.20;64.89;100320.97;7362204;19;20014;-62
2022/05/22 09:57:32;;;;;;;0.10;0.10;;;;;;;17.23;63.80;100324.28;7360013;19;20821;-62
2022/05/22 10:00:03;;;;;;;0.10;0.10;;;;;;;17.26;64.19;100332.03;7358384;19;20010;-62
2022/05/22 10:02:41;;;;;;;0.10;0.10;;;;;;;17.30;64.08;100330.94;7362724;19;20019;-62
2022/05/22 10:05:18;;;;;;;0.10;0.10;;;;;;;17.30;64.62;100322.16;7363022;19;20466;-61
2022/05/22 10:08:13;;;;;;;0.00;0.00;;;;;;;17.36;64.03;100317.38;7360934;19;20010;-62
2022/05/22 10:10:49;;;;;;;0.10;0.10;;;;;;;17.42;64.82;100304.78;7260603;19;2004405;-62
2022/05/22 10:13:43;;;;;;;0.00;0.00;;;;;;;17.56;64.33;100304.81;7360506;19;20023;-62
2022/05/22 10:16:27;;;;;;;0.10;0.10;;;;;;;17.83;65.33;100282.09;7259132;19;2004464;-62
2022/05/22 10:19:00;;;;;;;0.10;0.10;;;;;;;18.17;62.92;100277.44;7362157;19;20022;-62
2022/05/22 10:22:12;;;;;;;0.10;0.10;;;;;;;18.65;63.95;100277.97;7363624;19;20034;-62
2022/05/22 10:24:56;;;;;;;0.10;0.10;;;;;;;19.01;62.21;100281.91;7258391;19;2004329;-62
2022/05/22 10:27:44;;;;;;;0.10;0.10;;;;;;;19.30;62.68;100272.91;7358433;19;20010;-62
2022/05/22 10:30:19;;;;;;;0.10;0.10;;;;;;;19.44;60.64;100275.50;7361182;19;20070;-62
2022/05/22 10:33:21;;;;;;;0.00;0.00;;;;;;;19.60;61.23;100277.16;7360395;19;20007;-62
2022/05/22 10:35:58;;;;;;;0.10;0.10;;;;;;;19.65;58.68;100272.41;7259887;19;2004402;-62
2022/05/22 10:38:35;;;;;;;0.10;0.10;;;;;;;19.66;58.12;100268.81;7359620;19;20014;-62
2022/05/22 10:44:06;;;;;;;0.10;0.10;;;;;;;19.67;58.69;100244.03;7259249;19;2004239;-62
2022/05/22 10:46:31;;;;;;;0.10;0.10;;;;;;;19.62;58.14;100241.69;7358439;19;20360;-62
2022/05/22 10:48:57;;;;;;;0.05;0.05;;;;;;;19.65;58.71;100251.22;7359772;19;20017;-62
2022/05/22 10:51:28;;;;;;;0.05;0.05;;;;;;;19.73;57.53;100234.81;7359120;19;20102;-62
2022/05/22 10:54:00;;;;;;;0.10;0.10;;;;;;;19.74;58.85;100233.88;7361251;19;20010;-62
2022/05/22 10:56:29;;;;;;;0.10;0.10;;;;;;;19.75;58.18;100231.09;7360747;19;20010;-62
2022/05/22 10:58:58;;;;;;;0.10;0.10;;;;;;;19.78;57.50;100217.66;7359325;19;20010;-62
2022/05/22 11:01:26;;;;;;;0.10;0.10;;;;;;;19.82;58.54;100219.16;7359004;19;20035;-62
2022/05/22 11:04:07;;;;;;;0.10;0.10;;;;;;;19.95;58.36;100209.38;7358689;19;20054;-62
2022/05/22 11:06:34;;;;;;;0.10;0.10;;;;;;;19.98;57.44;100220.75;7359279;19;20054;-61
2022/05/22 11:09:00;;;;;;;0.00;0.00;;;;;;;20.01;56.23;100225.81;7358145;19;20019;-61
2022/05/22 11:11:32;;;;;;;0.10;0.10;;;;;;;20.06;56.79;100223.69;7362872;19;20023;-62
2022/05/22 11:14:12;;;;;;;0.10;0.10;;;;;;;20.15;56.71;100217.75;7365782;19;20010;-62
2022/05/22 11:16:39;;;;;;;0.00;0.00;;;;;;;20.16;55.17;100222.94;7365366;19;20405;-62
2022/05/22 11:19:18;;;;;;;0.10;0.10;;;;;;;20.27;56.36;100218.69;7364668;19;20018;-62
2022/05/22 11:22:18;;;;;;;0.10;0.10;;;;;;;20.33;56.71;100202.34;7365629;19;20019;-61
2022/05/22 11:25:21;;;;;;;0.10;0.10;;;;;;;20.39;56.46;100210.72;7265125;19;2004011;-62
2022/05/22 11:27:49;;;;;;;0.10;0.10;;;;;;;20.39;54.66;100208.06;7265165;19;2004297;-61
2022/05/22 11:30:56;;;;;;;0.10;0.10;;;;;;;20.40;55.10;100206.25;7366406;19;20021;-61
2022/05/22 11:33:32;;;;;;;0.10;0.10;;;;;;;20.37;54.80;100209.09;7265568;19;2004500;-62
2022/05/22 11:36:06;;;;;;;0.03;0.03;;;;;;;20.34;54.54;100204.88;7365330;19;20017;-61
2022/05/22 11:38:50;;;;;;;0.10;0.10;;;;;;;20.30;54.66;100190.16;7365473;19;20789;-61
2022/05/22 11:41:43;;;;;;;0.00;0.00;;;;;;;20.29;55.38;100199.06;7367713;19;20022;-61
2022/05/22 11:44:40;;;;;;;0.10;0.10;;;;;;;20.34;54.65;100199.59;7264517;19;2004335;-61
2022/05/22 11:47:42;;;;;;;0.10;0.10;;;;;;;20.43;55.92;100190.97;7264412;19;2004290;-61
2022/05/22 11:50:29;;;;;;;0.10;0.10;;;;;;;20.55;54.76;100205.19;7264784;19;2004107;-61
2022/05/22 11:53:11;;;;;;;0.10;0.10;;;;;;;20.66;54.50;100194.63;7364844;19;20388;-61
2022/05/22 11:55:46;;;;;;;0.10;0.10;;;;;;;20.78;53.51;100200.00;7367181;19;20022;-61
2022/05/22 11:58:25;;;;;;;0.10;0.10;;;;;;;20.77;51.21;100191.19;7366487;19;20040;-61